Coolidge, Kansas
Current Conditions -  °F | °C
As of 2:15 PM on Sunday 23 Nov 2014 (Local Time) from K3K3 Reporting Station
Clear Clear  
Wind Chill: 37°   Ceiling: Unl
Heat Index: 46°   Visibility: 10mi
Dew Point: 16°   Wind: 30mph
Humidity: 29%   Direction: 350°N
Pressure: 29.69"   Gusts: 43mph
Location:  38.04°N, 102.01°W
Report Text: K3K3 232115Z AUTO 35026G37KT 10SM CLR 08/M09 A2969 RMK AO2
Loading
Personal Weather Stations






























Interactive Weather Map New forecast layout! Learn more

10-Day Weather Forecast

Advertisements
Track Severe Weather on mobile